Time;durP1;ratioP1;P1;durP2;ratioP2;P2;SDS_P1;SDS_P2;PMS_P1;PMS_P2;Temp;Humidity;BMP_temperature;BMP_pressure;BME280_temperature;BME280_humidity;BME280_pressure;Samples;Min_cycle;Max_cycle;Signal;HPM_P1;HPM_P2
2021/11/17 02:27:56;;;;;;;61.27;23.97;;;;;;;-142.75;100.00;78157.19;4994830;28;20048;-71
2021/11/17 02:30:48;;;;;;;67.13;23.27;;;;;;;-142.75;100.00;78172.94;4992543;28;20025;-72
2021/11/17 02:33:29;;;;;;;64.73;23.90;;;;;;;-142.75;100.00;78151.28;5017899;28;20037;-71
2021/11/17 02:36:19;;;;;;;62.83;23.13;;;;;;;-142.75;100.00;78159.16;5010647;28;20591;-71
2021/11/17 02:39:09;;;;;;;61.20;23.47;;;;;;;-142.75;100.00;78163.09;5028279;28;20068;-71
2021/11/17 02:41:53;;;;;;;66.53;24.17;;;;;;;-142.75;100.00;78161.13;5027235;28;20483;-71
2021/11/17 02:44:46;;;;;;;56.83;22.63;;;;;;;-142.75;100.00;78176.88;5028029;28;20029;-72
2021/11/17 02:47:27;;;;;;;63.97;22.50;;;;;;;-142.75;100.00;78169.00;5010140;28;20064;-71
2021/11/17 02:50:14;;;;;;;61.47;22.33;;;;;;;-142.75;100.00;78163.09;4992816;28;20017;-71
2021/11/17 02:52:51;;;;;;;64.85;23.30;;;;;;;-142.75;100.00;78167.03;5027634;28;20063;-71
2021/11/17 02:55:51;;;;;;;57.90;23.30;;;;;;;-142.75;100.00;78180.81;5010230;28;20036;-71
2021/11/17 02:58:42;;;;;;;68.33;24.03;;;;;;;-142.75;100.00;78172.94;5016593;28;20029;-71
2021/11/17 03:01:19;;;;;;;68.93;23.67;;;;;;;-142.75;100.00;78184.78;5010207;28;20013;-72
2021/11/17 03:04:20;;;;;;;60.87;24.47;;;;;;;-142.75;100.00;78161.13;5027827;28;20057;-71
2021/11/17 03:07:19;;;;;;;61.40;22.37;;;;;;;-142.75;100.00;78163.09;4997031;28;20459;-71
2021/11/17 03:10:13;;;;;;;60.53;22.50;;;;;;;-142.75;100.00;78165.06;5011398;28;20478;-72
2021/11/17 03:12:38;;;;;;;63.07;24.70;;;;;;;-142.75;100.00;78161.13;5009583;28;20056;-71
2021/11/17 03:15:19;;;;;;;67.65;24.65;;;;;;;-142.75;100.00;78169.00;5027329;28;20053;-71
2021/11/17 03:18:00;;;;;;;69.90;25.17;;;;;;;-142.75;100.00;78149.31;4994217;28;20104;-71
2021/11/17 03:20:48;;;;;;;69.87;24.83;;;;;;;-142.75;100.00;78141.44;5008923;28;20044;-71
2021/11/17 03:23:26;;;;;;;72.93;25.87;;;;;;;-142.75;100.00;78145.38;5011784;28;20038;-72
2021/11/17 03:26:28;;;;;;;71.77;25.33;;;;;;;-142.75;100.00;78145.38;4989819;28;20045;-71
2021/11/17 03:29:17;;;;;;;63.77;23.73;;;;;;;-142.75;100.00;78143.41;4949692;28;20156;-72
2021/11/17 03:32:27;;;;;;;68.60;25.50;;;;;;;-142.75;100.00;78145.38;4990490;28;20054;-72
2021/11/17 03:35:14;;;;;;;74.27;25.87;;;;;;;-142.75;100.00;78151.28;4992701;28;20029;-72
2021/11/17 03:37:39;;;;;;;;;;;;;;;-142.75;100.00;78135.53;5008066;28;20048;-71
2021/11/17 03:40:24;;;;;;;69.93;26.70;;;;;;;-142.75;100.00;78149.31;5013319;28;19913;-72
2021/11/17 03:43:28;;;;;;;63.17;25.00;;;;;;;-142.75;100.00;78141.44;5027073;28;20394;-72
2021/11/17 03:46:28;;;;;;;78.37;26.70;;;;;;;-142.75;100.00;78151.28;5009449;28;20447;-72
2021/11/17 03:49:09;;;;;;;70.43;25.50;;;;;;;-142.75;100.00;78147.34;4979775;28;20083;-72
2021/11/17 03:51:49;;;;;;;68.23;25.33;;;;;;;-142.75;100.00;78129.63;5024438;28;20385;-72
2021/11/17 03:54:44;;;;;;;77.47;27.27;;;;;;;-142.75;100.00;78125.69;4999356;28;20511;-72
2021/11/17 03:57:15;;;;;;;67.10;25.57;;;;;;;-142.75;100.00;78127.66;4976345;28;20045;-72
2021/11/17 03:59:58;;;;;;;66.10;26.73;;;;;;;-142.75;100.00;78127.66;5026675;28;20503;-72
2021/11/17 04:02:42;;;;;;;73.03;25.97;;;;;;;-142.75;100.00;78113.88;5024479;28;20026;-72
2021/11/17 04:05:22;;;;;;;72.47;27.23;;;;;;;-142.75;100.00;78125.69;4991301;28;20034;-72
2021/11/17 04:07:56;;;;;;;76.50;26.23;;;;;;;-142.75;100.00;78123.72;5010953;28;20057;-72
2021/11/17 04:10:39;;;;;;;68.43;25.27;;;;;;;-142.75;100.00;78135.53;5006556;28;20022;-72
2021/11/17 04:13:33;;;;;;;77.07;26.57;;;;;;;-142.75;100.00;78133.56;4974807;28;20104;-72
2021/11/17 04:16:05;;;;;;;68.00;27.60;;;;;;;-142.75;100.00;78117.81;5006767;28;20383;-72
2021/11/17 04:19:05;;;;;;;72.23;25.07;;;;;;;-142.75;100.00;78111.91;4989475;28;20026;-72
2021/11/17 04:21:39;;;;;;;78.63;28.40;;;;;;;-142.75;100.00;78109.94;4988935;28;20038;-72
2021/11/17 04:24:38;;;;;;;72.93;26.37;;;;;;;-142.75;100.00;78115.84;5018198;28;20038;-73
2021/11/17 04:27:29;;;;;;;73.67;27.90;;;;;;;-142.75;100.00;78094.19;5010729;28;20030;-72
2021/11/17 04:30:10;;;;;;;78.93;26.87;;;;;;;-142.75;100.00;78113.88;4972026;28;20036;-72
2021/11/17 04:32:41;;;;;;;74.23;27.10;;;;;;;-142.75;100.00;78106.00;5011219;28;20037;-72
2021/11/17 04:35:30;;;;;;;74.93;28.50;;;;;;;-142.75;100.00;78100.09;4992926;28;20030;-72
2021/11/17 04:38:24;;;;;;;68.80;25.77;;;;;;;-142.75;100.00;78102.06;4986809;28;20157;-72
2021/11/17 04:40:49;;;;;;;73.43;28.20;;;;;;;-142.75;100.00;78098.13;4977329;28;20080;-72
2021/11/17 04:43:37;;;;;;;87.50;28.80;;;;;;;-142.75;100.00;78100.09;5030171;28;20048;-72
2021/11/17 04:46:11;;;;;;;84.78;28.45;;;;;;;-142.75;100.00;78084.34;4994985;28;20100;-72
2021/11/17 04:49:02;;;;;;;72.90;27.07;;;;;;;-142.75;100.00;78088.28;5010411;28;20476;-72
2021/11/17 04:51:33;;;;;;;70.03;27.13;;;;;;;-142.75;100.00;78086.31;5009499;28;20017;-72
2021/11/17 04:54:14;;;;;;;75.77;28.03;;;;;;;-142.75;100.00;78100.09;4992726;28;20138;-72
2021/11/17 04:56:55;;;;;;;74.87;26.73;;;;;;;-142.75;100.00;78115.84;5010268;28;20136;-72
2021/11/17 04:59:33;;;;;;;73.53;27.90;;;;;;;-142.75;100.00;78106.00;5010237;28;20399;-72
2021/11/17 05:02:20;;;;;;;74.83;27.87;;;;;;;-142.75;100.00;78082.38;4976528;28;20483;-73
2021/11/17 05:05:10;;;;;;;85.88;28.58;;;;;;;-142.75;100.00;78102.06;4992725;28;20029;-72
2021/11/17 05:07:41;;;;;;;86.53;27.70;;;;;;;-142.75;100.00;78121.75;5009982;28;20046;-72
2021/11/17 05:10:25;;;;;;;74.70;26.73;;;;;;;-142.75;100.00;78109.94;4991685;28;20487;-72
2021/11/17 05:12:57;;;;;;;76.67;27.50;;;;;;;-142.75;100.00;78111.91;4977982;28;20422;-72
2021/11/17 05:15:47;;;;;;;76.73;28.80;;;;;;;-142.75;100.00;78109.94;5022640;28;20028;-72
2021/11/17 05:18:21;;;;;;;76.10;28.20;;;;;;;-142.75;100.00;78090.25;5011710;28;20030;-72
2021/11/17 05:20:58;;;;;;;78.43;27.20;;;;;;;-142.75;100.00;78094.19;5028956;28;20075;-73
2021/11/17 05:23:48;;;;;;;76.40;28.27;;;;;;;-142.75;100.00;78098.13;5011481;28;20017;-72
2021/11/17 05:26:22;;;;;;;79.50;28.90;;;;;;;-142.75;100.00;78102.06;5013450;28;20170;-72
2021/11/17 05:29:19;;;;;;;80.73;29.40;;;;;;;-142.75;100.00;78094.19;5011872;28;20033;-72
2021/11/17 05:32:08;;;;;;;76.07;28.47;;;;;;;-142.75;100.00;78088.28;5029468;28;20087;-73
2021/11/17 05:34:48;;;;;;;75.60;28.57;;;;;;;-142.75;100.00;78086.31;4990734;28;20869;-73
2021/11/17 05:37:35;;;;;;;78.80;30.20;;;;;;;-142.75;100.00;78092.22;5011643;28;20044;-72
2021/11/17 05:40:18;;;;;;;;;;;;;;;-142.75;100.00;78094.19;5028807;28;20493;-72
2021/11/17 05:42:59;;;;;;;80.30;28.93;;;;;;;-142.75;100.00;78086.31;5009619;28;19913;-72
2021/11/17 05:45:36;;;;;;;77.03;28.80;;;;;;;-142.75;100.00;78072.53;4975043;28;20025;-72
2021/11/17 05:48:08;;;;;;;79.07;30.07;;;;;;;-142.75;100.00;78076.47;5010381;28;20022;-72
2021/11/17 05:50:58;;;;;;;85.43;29.30;;;;;;;-142.75;100.00;78084.34;4992289;28;20022;-72
2021/11/17 05:54:08;;;;;;;84.10;31.70;;;;;;;-142.75;100.00;78066.63;5010437;28;20061;-72
2021/11/17 05:56:42;;;;;;;85.53;29.77;;;;;;;-142.75;100.00;78044.94;4930677;29;20043;-72
2021/11/17 05:59:39;;;;;;;83.97;30.90;;;;;;;-142.75;100.00;78054.81;4996902;28;20488;-72
2021/11/17 06:02:11;;;;;;;90.20;32.50;;;;;;;-142.75;100.00;78058.72;5012560;28;20036;-72
2021/11/17 06:04:36;;;;;;;94.37;32.97;;;;;;;-142.75;100.00;78050.84;5030028;28;20394;-72
2021/11/17 06:07:01;;;;;;;88.17;31.97;;;;;;;-142.75;100.00;78068.59;5029449;28;20034;-72
2021/11/17 06:09:27;;;;;;;75.47;30.30;;;;;;;-142.75;100.00;78044.94;5029752;28;20029;-72
2021/11/17 06:11:56;;;;;;;82.00;30.30;;;;;;;-142.75;100.00;78044.94;5004577;28;20075;-72
2021/11/17 06:14:35;;;;;;;78.63;31.17;;;;;;;-142.75;100.00;78042.97;5009871;28;20411;-72
2021/11/17 06:17:09;;;;;;;87.13;32.20;;;;;;;-142.75;100.00;78050.84;5009922;28;20033;-72
2021/11/17 06:19:39;;;;;;;83.87;32.40;;;;;;;-142.75;100.00;78046.91;5010041;28;20084;-72
2021/11/17 06:22:06;;;;;;;82.07;30.37;;;;;;;-142.75;100.00;78033.13;5009769;28;20029;-72
2021/11/17 06:24:33;;;;;;;87.07;31.13;;;;;;;-142.75;100.00;78046.91;5009517;28;20385;-72
2021/11/17 06:26:58;;;;;;;81.47;31.13;;;;;;;-142.75;100.00;78042.97;5031689;22;20495;-65
2021/11/17 06:29:29;;;;;;;88.25;32.45;;;;;;;-142.75;100.00;78039.03;5011632;28;20175;-67
2021/11/17 06:31:55;;;;;;;84.50;32.57;;;;;;;-142.75;100.00;78037.06;5049456;28;20032;-67
2021/11/17 06:34:22;;;;;;;86.90;31.33;;;;;;;-142.75;100.00;78046.91;5049191;28;20066;-66
2021/11/17 06:36:47;;;;;;;;;;;;;;;-142.75;100.00;78031.16;5032030;28;20039;-67
2021/11/17 06:39:12;;;;;;;80.30;31.27;;;;;;;-142.75;100.00;78025.25;5047211;28;20312;-66
2021/11/17 06:41:38;;;;;;;88.03;31.60;;;;;;;-142.75;100.00;78039.03;5048325;28;20029;-67
2021/11/17 06:44:03;;;;;;;;;;;;;;;-142.75;100.00;78039.03;5049580;28;20147;-67
2021/11/17 06:46:29;;;;;;;87.45;30.42;;;;;;;-142.75;100.00;78048.88;5048785;28;20352;-67
2021/11/17 06:48:54;;;;;;;94.07;32.80;;;;;;;-142.75;100.00;78029.19;5047733;28;20021;-67
2021/11/17 06:51:19;;;;;;;87.32;31.48;;;;;;;-142.75;100.00;78035.09;5047183;28;20021;-67
2021/11/17 06:53:45;;;;;;;93.80;31.70;;;;;;;-142.75;100.00;78039.03;5049128;28;20367;-66
2021/11/17 06:56:10;;;;;;;80.35;30.02;;;;;;;-142.75;100.00;78031.16;5048776;28;20043;-67
2021/11/17 06:58:35;;;;;;;87.32;30.70;;;;;;;-142.75;100.00;78027.22;5048847;28;20032;-67
2021/11/17 07:01:00;;;;;;;87.57;31.90;;;;;;;-142.75;100.00;78015.41;5030786;28;20035;-66
2021/11/17 07:03:27;;;;;;;84.72;30.80;;;;;;;-142.75;100.00;78013.44;5049072;28;20441;-67
2021/11/17 07:05:52;;;;;;;85.20;32.97;;;;;;;-142.75;100.00;78007.53;5048453;28;20032;-67
2021/11/17 07:08:17;;;;;;;86.03;32.58;;;;;;;-142.75;100.00;78003.59;5049064;28;20409;-67
2021/11/17 07:10:43;;;;;;;88.68;32.15;;;;;;;-142.75;100.00;78013.44;5047500;28;20111;-67
2021/11/17 07:13:08;;;;;;;83.93;32.17;;;;;;;-142.75;100.00;78003.59;5048811;28;20116;-67
2021/11/17 07:15:35;;;;;;;86.72;32.10;;;;;;;-142.75;100.00;78007.53;5048351;28;20032;-67
2021/11/17 07:18:00;;;;;;;86.33;31.97;;;;;;;-142.75;100.00;77999.66;5030675;28;20150;-67
2021/11/17 07:20:26;;;;;;;91.07;33.38;;;;;;;-142.75;100.00;78003.59;5048392;28;20554;-67
2021/11/17 07:22:51;;;;;;;90.93;33.33;;;;;;;-142.75;100.00;78007.53;5034019;28;20037;-65
2021/11/17 07:25:20;;;;;;;93.70;34.55;;;;;;;-142.75;100.00;78011.47;5028840;28;20028;-65
2021/11/17 07:27:46;;;;;;;106.28;33.83;;;;;;;-142.75;100.00;77999.66;5028815;28;20052;-65
2021/11/17 07:30:15;;;;;;;86.13;31.30;;;;;;;-142.75;100.00;77991.78;5027569;28;20115;-65
2021/11/17 07:32:40;;;;;;;82.47;32.58;;;;;;;-142.75;100.00;77995.72;5029012;28;20033;-67
2021/11/17 07:35:07;;;;;;;85.20;32.90;;;;;;;-142.75;100.00;77997.69;5010541;28;20025;-67
2021/11/17 07:37:33;;;;;;;90.30;32.55;;;;;;;-142.75;100.00;77979.97;5028545;28;20514;-67
2021/11/17 07:39:58;;;;;;;;;;;;;;;-142.75;100.00;77985.88;5028114;28;20162;-67
2021/11/17 07:42:24;;;;;;;85.30;30.85;;;;;;;-142.75;100.00;77987.84;5028527;28;19913;-68
2021/11/17 07:44:50;;;;;;;75.95;30.52;;;;;;;-142.75;100.00;77985.88;5028419;28;20029;-67
2021/11/17 07:47:16;;;;;;;82.38;30.52;;;;;;;-142.75;100.00;77985.88;5028734;28;20164;-67
2021/11/17 07:49:41;;;;;;;77.97;30.30;;;;;;;-142.75;100.00;77976.03;5025751;28;20637;-66
2021/11/17 07:52:06;;;;;;;81.60;31.80;;;;;;;-142.75;100.00;77968.16;5028256;28;20029;-67
2021/11/17 07:54:32;;;;;;;85.10;31.42;;;;;;;-142.75;100.00;77976.03;5028254;28;20021;-67
2021/11/17 07:56:59;;;;;;;73.37;29.77;;;;;;;-142.75;100.00;77970.13;5028381;28;20025;-67
2021/11/17 07:59:28;;;;;;;79.47;31.02;;;;;;;-142.75;100.00;77958.31;5028268;28;20803;-67
2021/11/17 08:01:55;;;;;;;81.93;32.17;;;;;;;-142.75;100.00;77956.34;5027955;28;20034;-67
2021/11/17 08:04:23;;;;;;;85.03;32.53;;;;;;;-142.75;100.00;77960.28;5032215;28;20372;-67
2021/11/17 08:06:49;;;;;;;83.82;32.58;;;;;;;-142.75;100.00;77946.50;5032228;28;20032;-67
2021/11/17 08:09:16;;;;;;;81.53;33.45;;;;;;;-142.75;100.00;77952.41;5032389;28;20032;-67
2021/11/17 08:11:42;;;;;;;90.43;35.75;;;;;;;-142.75;100.00;77954.38;5013486;28;20028;-66
2021/11/17 08:14:08;;;;;;;88.45;33.53;;;;;;;-142.75;100.00;77950.44;5032058;28;20029;-67
2021/11/17 08:16:33;;;;;;;;;;;;;;;-142.75;100.00;77938.63;5032487;28;20030;-67
2021/11/17 08:18:59;;;;;;;85.15;33.38;;;;;;;-142.75;100.00;77932.72;5031759;28;19935;-67
2021/11/17 08:21:24;;;;;;;86.75;35.08;;;;;;;-142.75;100.00;77920.91;5031218;28;20017;-67
2021/11/17 08:23:49;;;;;;;93.73;33.50;;;;;;;-142.75;100.00;77909.06;5031672;28;20036;-66
2021/11/17 08:26:17;;;;;;;86.30;34.92;;;;;;;-142.75;100.00;77922.88;5031919;28;20641;-67
2021/11/17 08:28:43;;;;;;;90.05;35.70;;;;;;;-142.75;100.00;77918.94;5031642;28;20032;-66
2021/11/17 08:31:11;;;;;;;81.40;32.38;;;;;;;-142.75;100.00;77895.28;5030850;28;20476;-66
2021/11/17 08:33:36;;;;;;;83.60;35.22;;;;;;;-142.75;100.00;77901.19;5031905;28;20545;-67
2021/11/17 08:36:02;;;;;;;85.57;33.70;;;;;;;-142.75;100.00;77889.38;5031534;28;20029;-66
2021/11/17 08:38:30;;;;;;;85.22;35.28;;;;;;;-142.75;100.00;77883.47;5013718;28;20534;-67
2021/11/17 08:40:59;;;;;;;81.07;34.55;;;;;;;-142.75;100.00;77885.44;5029054;28;20431;-67
2021/11/17 08:43:25;;;;;;;82.00;33.97;;;;;;;-142.75;100.00;77879.53;5030329;28;20044;-67
2021/11/17 08:45:52;;;;;;;82.68;33.45;;;;;;;-142.75;100.00;77885.44;5030475;28;20405;-65
2021/11/17 08:48:20;;;;;;;82.63;34.22;;;;;;;-142.75;100.00;77881.50;5012888;28;20565;-65
2021/11/17 08:50:46;;;;;;;77.47;34.17;;;;;;;-142.75;100.00;77885.44;5012008;28;20055;-65
2021/11/17 08:53:14;;;;;;;85.97;33.85;;;;;;;-142.75;100.00;77881.50;5030474;28;20120;-65
2021/11/17 08:55:43;;;;;;;80.72;33.47;;;;;;;-142.75;100.00;77889.38;5030101;28;20576;-65
2021/11/17 08:58:11;;;;;;;80.10;33.58;;;;;;;-142.75;100.00;77869.69;5029941;28;20065;-65
2021/11/17 09:00:37;;;;;;;84.63;33.67;;;;;;;-142.75;100.00;77869.69;5029707;28;20457;-65
2021/11/17 09:03:03;;;;;;;;;;;;;;;-142.75;100.00;77885.44;5031269;28;20051;-65
2021/11/17 09:05:35;;;;;;;79.75;31.95;;;;;;;-142.75;100.00;77881.50;5030037;28;20401;-66
2021/11/17 09:08:00;;;;;;;86.22;33.75;;;;;;;-142.75;100.00;77881.50;5029446;28;20515;-65
2021/11/17 09:10:28;;;;;;;80.75;33.58;;;;;;;-142.75;100.00;77863.78;5028864;28;20075;-65
2021/11/17 09:12:54;;;;;;;84.57;34.17;;;;;;;-142.75;100.00;77873.63;5021446;28;20025;-65
2021/11/17 09:15:23;;;;;;;80.97;32.10;;;;;;;-142.75;100.00;77848.03;5011186;28;20025;-65
2021/11/17 09:17:49;;;;;;;82.80;33.95;;;;;;;-142.75;100.00;77850.00;5029578;28;20029;-65
2021/11/17 09:20:16;;;;;;;77.75;31.83;;;;;;;-142.75;100.00;77826.38;5028274;28;20430;-65
2021/11/17 09:22:42;;;;;;;73.93;32.20;;;;;;;-142.75;100.00;77826.38;5042497;28;20021;-65
2021/11/17 09:25:09;;;;;;;86.35;32.13;;;;;;;-142.75;100.00;77798.81;5049568;28;20029;-65
2021/11/17 09:27:35;;;;;;;73.20;31.83;;;;;;;-142.75;100.00;77796.84;5049315;28;20029;-65
2021/11/17 09:30:01;;;;;;;70.68;32.13;;;;;;;-142.75;100.00;77781.09;5030969;28;20028;-65
2021/11/17 09:32:31;;;;;;;72.18;31.88;;;;;;;-142.75;100.00;77763.38;5032126;28;20037;-66
2021/11/17 09:34:58;;;;;;;69.03;29.70;;;;;;;-142.75;100.00;77753.53;5049528;28;20135;-65
2021/11/17 09:37:24;;;;;;;74.28;30.85;;;;;;;-142.75;100.00;77731.88;5049308;28;20118;-66
2021/11/17 09:39:52;;;;;;;;;;;;;;;-142.75;100.00;77720.03;5049213;28;20021;-65
2021/11/17 09:42:18;;;;;;;77.60;30.73;;;;;;;-142.75;100.00;77702.31;5049251;28;20412;-66
2021/11/17 09:44:43;;;;;;;65.25;29.13;;;;;;;-142.75;100.00;77692.47;5049605;28;20024;-65
2021/11/17 09:47:14;;;;;;;67.88;29.48;;;;;;;-142.75;100.00;77662.94;5049059;28;20033;-66
2021/11/17 09:49:48;;;;;;;59.60;27.92;;;;;;;-142.75;100.00;77633.41;5030554;28;20041;-65
2021/11/17 09:52:25;;;;;;;53.83;25.67;;;;;;;-142.75;100.00;77552.69;5049631;28;20382;-65
2021/11/17 09:54:57;;;;;;;54.80;26.55;;;;;;;-142.75;100.00;77548.75;5049401;28;20021;-65
2021/11/17 09:57:28;;;;;;;53.80;23.85;;;;;;;-142.75;100.00;77544.81;5049119;28;20021;-65
2021/11/17 10:00:10;;;;;;;46.83;21.85;;;;;;;-142.75;100.00;77564.50;5009531;28;20028;-66
2021/11/17 10:02:45;;;;;;;44.78;19.80;;;;;;;-142.75;100.00;77568.44;5026765;28;20387;-65
2021/11/17 10:05:22;;;;;;;41.45;19.52;;;;;;;-142.75;100.00;77586.16;5027311;28;20017;-65
2021/11/17 10:13:42;;;;;;;38.70;17.60;;;;;;;-142.75;100.00;77615.69;5028153;28;20104;-65
2021/11/17 10:16:07;;;;;;;31.83;16.37;;;;;;;-142.75;100.00;77623.56;5029020;28;20112;-65
2021/11/17 10:18:38;;;;;;;;;;;;;;;-142.75;100.00;77609.78;5038767;28;20104;-65
2021/11/17 10:21:09;;;;;;;29.75;14.20;;;;;;;-142.75;100.00;77607.81;5031644;28;20007;-65
2021/11/17 10:23:53;;;;;;;29.20;13.63;;;;;;;-142.75;100.00;77605.84;5028782;28;20032;-66
2021/11/17 10:26:19;;;;;;;30.35;13.43;;;;;;;-142.75;100.00;77538.91;5028190;28;20030;-65
2021/11/17 10:28:51;;;;;;;;;;;;;;;-142.75;100.00;77471.97;5029249;28;20029;-65
2021/11/17 10:31:45;;;;;;;25.65;8.27;;;;;;;-142.75;100.00;77438.47;5027999;28;20011;-66
2021/11/17 10:34:21;;;;;;;15.95;6.82;;;;;;;-142.75;100.00;77403.03;5011015;28;20569;-65
2021/11/17 10:37:06;;;;;;;19.30;7.03;;;;;;;-142.75;100.00;77363.66;5028567;28;20043;-65
2021/11/17 10:39:37;;;;;;;19.48;5.35;;;;;;;-142.75;100.00;77302.63;5028426;28;20033;-64
2021/11/17 10:42:08;;;;;;;19.30;3.80;;;;;;;-142.75;100.00;77261.28;5027894;28;20022;-65
2021/11/17 10:44:42;;;;;;;14.05;3.35;;;;;;;-142.75;100.00;77225.84;5010886;28;20021;-64
2021/11/17 10:47:28;;;;;;;13.63;2.67;;;;;;;-142.75;96.03;77176.63;5028037;28;20030;-64
2021/11/17 10:50:10;;;;;;;12.30;2.47;;;;;;;-142.75;92.08;77170.72;5013155;28;20134;-65
2021/11/17 10:52:56;;;;;;;13.65;2.35;;;;;;;-142.75;89.49;77200.25;5028305;28;20435;-67
2021/11/17 10:55:42;;;;;;;15.70;2.67;;;;;;;-142.75;88.96;77141.19;5028022;28;20040;-66
2021/11/17 10:58:13;;;;;;;17.38;2.90;;;;;;;-142.75;86.96;77162.84;5027571;28;20049;-66
2021/11/17 11:00:43;;;;;;;14.32;2.45;;;;;;;-142.75;85.14;77149.06;5027658;28;20033;-67
2021/11/17 11:03:12;;;;;;;15.75;2.72;;;;;;;-142.75;83.54;77131.34;5028569;28;20037;-67
2021/11/17 11:05:50;;;;;;;22.55;3.33;;;;;;;-142.75;81.69;77153.00;5010193;28;20025;-66
2021/11/17 11:08:21;;;;;;;13.27;2.20;;;;;;;-142.75;80.42;77135.28;5028333;28;20030;-67
2021/11/17 11:10:54;;;;;;;17.15;2.85;;;;;;;-142.75;78.87;77091.97;5027247;28;20453;-68
2021/11/17 11:13:28;;;;;;;23.02;3.80;;;;;;;-142.75;77.69;77080.16;5028226;28;20487;-67
2021/11/17 11:15:57;;;;;;;19.25;2.70;;;;;;;-142.75;75.52;77101.81;5047664;28;20100;-67
2021/11/17 11:18:37;;;;;;;15.27;3.03;;;;;;;-142.75;76.14;77058.50;5047786;28;20502;-67
2021/11/17 11:21:03;;;;;;;17.27;3.80;;;;;;;-142.75;75.40;77078.19;5047129;28;20386;-67
2021/11/17 11:23:35;;;;;;;15.57;3.20;;;;;;;-142.75;76.01;77086.06;5047387;28;20029;-67
2021/11/17 11:26:17;;;;;;;21.80;3.13;;;;;;;-142.75;73.71;77137.25;5047083;28;20123;-67
2021/11/17 11:29:08;;;;;;;21.95;2.97;;;;;;;-142.75;73.83;77129.38;5047482;28;20068;-67
2021/11/17 11:31:41;;;;;;;14.77;2.72;;;;;;;-142.75;73.17;77153.00;5032364;28;20049;-68
2021/11/17 11:34:06;;;;;;;13.82;2.45;;;;;;;-142.75;72.57;77129.38;5047921;28;20055;-66
2021/11/17 11:36:43;;;;;;;20.37;2.90;;;;;;;-142.75;71.44;77198.28;5047851;28;20052;-67
2021/11/17 11:39:08;;;;;;;14.63;2.92;;;;;;;-142.75;72.63;77279.00;5053641;28;20751;-67
2021/11/17 11:42:15;;;;;;;19.90;2.93;;;;;;;-142.75;74.54;77318.38;5053035;28;20474;-68
2021/11/17 11:44:54;;;;;;;22.17;3.47;;;;;;;-142.75;76.35;77363.66;5012909;28;20288;-67
2021/11/17 11:47:22;;;;;;;17.05;3.22;;;;;;;-142.75;77.07;77312.47;5034397;28;20550;-67
2021/11/17 11:49:49;;;;;;;12.45;2.53;;;;;;;-142.75;76.52;77302.63;5033352;28;20040;-67
2021/11/17 11:52:24;;;;;;;21.45;2.65;;;;;;;-142.75;77.04;77277.03;5034350;28;20029;-67
2021/11/17 11:54:55;;;;;;;13.38;2.50;;;;;;;-142.75;77.44;77263.25;5033788;28;20487;-67
2021/11/17 11:57:40;;;;;;;15.20;2.30;;;;;;;-142.75;78.59;77322.31;5016726;28;20514;-68
2021/11/17 12:00:18;;;;;;;11.88;2.45;;;;;;;-142.75;80.99;77355.78;5015591;28;20074;-67
2021/11/17 12:03:00;;;;;;;12.55;2.67;;;;;;;-142.75;82.90;77401.06;5017129;28;20403;-68
2021/11/17 12:05:38;;;;;;;13.90;2.40;;;;;;;-142.75;84.50;77436.50;5016072;28;20395;-67
2021/11/17 12:08:18;;;;;;;9.65;2.25;;;;;;;-142.75;86.20;77460.13;5034075;28;20033;-67
2021/11/17 12:10:49;;;;;;;18.05;2.47;;;;;;;-142.75;87.15;77470.00;5032909;28;20029;-67
2021/11/17 12:13:20;;;;;;;18.23;2.65;;;;;;;-142.75;88.06;77523.16;5033148;28;20104;-68
2021/11/17 12:16:09;;;;;;;13.25;2.80;;;;;;;-142.75;89.15;77536.94;5034092;28;20034;-67
2021/11/17 12:18:51;;;;;;;13.38;2.50;;;;;;;-142.75;90.27;77554.66;5033569;28;20033;-67
2021/11/17 12:21:33;;;;;;;21.10;3.10;;;;;;;-142.75;91.33;77542.84;5033508;28;20018;-68
2021/11/17 12:24:07;;;;;;;13.77;2.60;;;;;;;-142.75;89.28;77509.38;5032615;28;20040;-67
2021/11/17 12:26:36;;;;;;;13.65;2.13;;;;;;;-142.75;87.79;77483.78;5019382;28;20384;-67
2021/11/17 12:29:13;;;;;;;19.30;3.63;;;;;;;-142.75;86.50;77430.59;5045078;28;20174;-67
2021/11/17 12:34:25;;;;;;;13.30;2.35;;;;;;;-142.75;84.31;77397.13;5011337;28;20116;-69
2021/11/17 12:36:57;;;;;;;14.60;2.60;;;;;;;-142.75;83.66;77416.81;5013941;28;20068;-69
2021/11/17 12:39:31;;;;;;;12.57;2.38;;;;;;;-142.75;84.47;77464.09;5013018;28;20100;-69
2021/11/17 12:42:00;;;;;;;11.57;2.83;;;;;;;-142.75;86.62;77481.81;5009061;28;20434;-69
2021/11/17 12:44:33;;;;;;;11.82;2.30;;;;;;;-142.75;88.27;77511.34;4992826;28;20018;-70
2021/11/17 12:47:04;;;;;;;19.02;2.25;;;;;;;-142.75;88.93;77515.28;4992712;28;20064;-70
2021/11/17 12:49:36;;;;;;;16.13;2.10;;;;;;;-142.75;89.70;77527.09;4989370;28;20057;-69
2021/11/17 12:52:13;;;;;;;16.50;2.38;;;;;;;-142.75;90.70;77548.75;4986815;28;20507;-70
2021/11/17 12:54:49;;;;;;;15.60;2.60;;;;;;;-142.75;89.86;77588.13;4991011;28;20484;-69
2021/11/17 12:57:23;;;;;;;14.35;2.20;;;;;;;-142.75;88.81;77554.66;4991571;28;20100;-69
2021/11/17 12:59:52;;;;;;;14.52;2.35;;;;;;;-142.75;88.57;77527.09;4990323;28;20541;-69
2021/11/17 13:02:21;;;;;;;12.70;2.67;;;;;;;-142.75;87.27;77521.19;4991602;28;20033;-69
2021/11/17 13:04:48;;;;;;;16.00;2.60;;;;;;;-142.75;87.49;77523.16;4991232;28;20030;-68
2021/11/17 13:07:31;;;;;;;17.17;2.83;;;;;;;-142.75;86.92;77519.22;4990908;28;20452;-70
2021/11/17 13:09:59;;;;;;;9.65;2.42;;;;;;;-142.75;85.02;77531.03;4989926;28;20027;-68
2021/11/17 13:12:31;;;;;;;12.15;2.03;;;;;;;-142.75;85.77;77562.53;4990626;28;20033;-68
2021/11/17 13:15:08;;;;;;;12.90;2.28;;;;;;;-142.75;87.84;77576.31;4990547;28;20026;-70
2021/11/17 13:17:33;;;;;;;;;;;;;;;-142.75;88.83;77603.88;4988531;28;20033;-69
2021/11/17 13:20:36;;;;;;;12.60;2.20;;;;;;;-142.75;87.87;77609.78;4989488;28;19918;-68
2021/11/17 13:23:07;;;;;;;17.38;2.40;;;;;;;-142.75;88.70;77605.84;4989164;28;20037;-69
2021/11/17 13:26:17;;;;;;;24.13;3.05;;;;;;;-142.75;88.99;77611.75;4989282;28;20023;-70
2021/11/17 13:28:45;;;;;;;18.02;2.85;;;;;;;-142.75;89.00;77623.56;4989562;28;20474;-69
2021/11/17 13:31:32;;;;;;;14.25;2.40;;;;;;;-142.75;90.11;77633.41;4999613;28;20032;-69
2021/11/17 13:34:06;;;;;;;;;;;;;;;-142.75;90.25;77649.16;4991981;28;20027;-69
2021/11/17 13:36:39;;;;;;;15.85;3.15;;;;;;;-142.75;91.85;77657.03;4991208;28;19914;-69
2021/11/17 13:39:06;;;;;;;28.63;3.15;;;;;;;-142.75;91.71;77662.94;4991202;28;20416;-69
2021/11/17 13:41:33;;;;;;;19.20;2.58;;;;;;;-142.75;92.35;77676.72;4990372;28;20022;-69
2021/11/17 13:44:01;;;;;;;18.52;3.00;;;;;;;-142.75;92.53;77676.72;4991255;28;20153;-69
2021/11/17 13:46:27;;;;;;;19.15;2.50;;;;;;;-142.75;92.00;77676.72;4991188;28;20392;-69
2021/11/17 13:48:52;;;;;;;21.80;3.13;;;;;;;-142.75;92.42;77688.53;5009327;28;20026;-69
2021/11/17 13:51:27;;;;;;;20.23;2.70;;;;;;;-142.75;92.73;77674.75;5010067;28;20068;-68
2021/11/17 13:53:54;;;;;;;20.92;3.28;;;;;;;-142.75;92.39;77698.38;5005961;28;20026;-69
2021/11/17 13:56:26;;;;;;;17.95;2.88;;;;;;;-142.75;92.51;77700.34;4991151;28;20026;-68
2021/11/17 13:58:53;;;;;;;18.95;3.17;;;;;;;-142.75;92.70;77698.38;4990985;28;20023;-69
2021/11/17 14:01:20;;;;;;;14.40;2.85;;;;;;;-142.75;92.14;77720.03;4989523;28;20019;-69
2021/11/17 14:03:45;;;;;;;16.13;2.30;;;;;;;-142.75;91.72;77731.88;4990250;28;20033;-69
2021/11/17 14:06:14;;;;;;;25.65;3.90;;;;;;;-142.75;92.44;77723.97;4990595;28;20030;-69
2021/11/17 14:08:39;;;;;;;16.00;3.20;;;;;;;-142.75;91.94;77723.97;4995661;28;20064;-69
2021/11/17 14:11:06;;;;;;;19.27;3.22;;;;;;;-142.75;91.91;77739.75;5009306;28;20057;-69